常連様 奮闘中!!!!!

LUXURY FLIGHT

080-7560-1817

羽田空港本店: 所在地: 東京都大田区羽田空港3-3-2    セントレア店: 所在地: 愛知県常滑市セントレア1-1      HICityファイター店: 所在地: 東京都大田区羽田空港1-1-4
           第1旅客ターミナル5階                  FLIGHT OF DREAMS FLIGHT PARK                 HANEDA INNOVATION CITY ZONE-J 2-5
      営業時間: 10:00~20:00 定休日: 年中無休         営業時間: 10:00~20:00 定休日: 年中無休             営業時間: 10:00~20:00 定休日: 年中無休
      電話番号: 080-7560-1817                  電話番号: 080-4945-5666                     電話番号: 03-5579-7980

lv

常連様 奮闘中!!!!!

STAFF BLOG

2019/08/24 常連様 奮闘中!!!!!

こんにちはーーーーー

 

本日の羽田周辺のMETARは…

 

RJTT 230830Z 20013KT 9999 -SHRA FEW020 BKN150 26/24 Q1004

NOSIG RMK 1CU020 7AC150 A2967

 

 

本日は一般のお客様の合間に、たくさんの常連様が遊びに来てくださっておりまーーーーす!!

 

皆様それぞれに課題を抱えながら、コックピットで戦っております

 

特に最近成果が出てきた一部のお客様をご紹介ーーーーー!!!!!

 

img_2740

タッチ&ゴーを猛特訓中のM様、

ベースターン→ファイナルにかけて、ピッチが不安定な場面が続いておりましたが

ここ最近は絶好調!!その調子で頑張ってください!!!

 

 

 

img_2738

コチラの方もタッチ&ゴーを猛特訓中ですが、

操縦に集中しすぎて8回に1回くらいしか「アフターテイクオフチェックリスト」が出来ない、

というお悩みをもつK様。でも操縦はすごく安定!!!

次回は4回に1回はできるように頑張ってまいりましょう!!!(^^)

 

 

 

 

img_2752

2ヶ月ほど前から操縦のイロハを学び始めたG君。

慣れないパワーコントロールに悪戦苦闘しながら、一生懸命着陸練習をしてくれています。

来月も頑張りましょうね!!!

 

 

 

 

img_2755

様々な状況で繰り返しアプローチの練習をしてくださっているU様。

ジャンボの慣性と上手く付き合いながら、

絶妙な小さいコントロールでナイスランディングを連発中!!!

さすがです!!!

 

 

皆様それぞれに熱い思いを抱えながら、操縦桿を握られています!!

 

そんな方々を右席で支えられる日々に感謝!!!!

 

引き続き、全力でサポートさせていただきますので宜しくお願いいたします!!

 

いつもブログを読んでくださり本当にありがとうございます。

 

「感謝」

 

 

 

 

 

 

 

TOP